createdAt,value
2023-02-03T00:01:33.090Z,2.70
2023-02-03T00:04:04.631Z,3.20
2023-02-03T00:06:36.763Z,2.80
2023-02-03T00:09:08.477Z,2.90
2023-02-03T00:11:40.066Z,2.60
2023-02-03T00:14:11.639Z,2.60
2023-02-03T00:16:43.091Z,2.50
2023-02-03T00:19:16.512Z,2.80
2023-02-03T00:21:49.155Z,2.90
2023-02-03T00:24:21.069Z,2.50
2023-02-03T00:26:52.683Z,2.80
2023-02-03T00:29:26.270Z,3.20
2023-02-03T00:31:59.377Z,2.80
2023-02-03T00:34:33.218Z,2.50
2023-02-03T00:37:05.328Z,2.30
2023-02-03T00:39:39.530Z,2.50
2023-02-03T00:42:11.519Z,2.00
2023-02-03T00:44:43.197Z,2.80
2023-02-03T00:47:14.677Z,2.40
2023-02-03T00:49:46.407Z,2.30
2023-02-03T00:52:17.940Z,2.50
2023-02-03T00:54:49.428Z,2.30
2023-02-03T00:57:20.950Z,2.20
2023-02-03T00:59:52.447Z,2.10
2023-02-03T01:02:24.833Z,1.90
2023-02-03T01:04:56.367Z,2.30
2023-02-03T01:07:27.896Z,2.10
2023-02-03T01:09:59.313Z,2.00
2023-02-03T01:12:32.931Z,1.90
2023-02-03T01:15:04.481Z,1.80
2023-02-03T01:17:36.086Z,2.10
2023-02-03T01:20:12.525Z,2.10
2023-02-03T01:22:44.441Z,1.80
2023-02-03T01:25:15.997Z,1.80
2023-02-03T01:27:47.387Z,1.60
2023-02-03T01:30:19.602Z,1.90
2023-02-03T01:32:51.170Z,1.90
2023-02-03T01:35:22.609Z,1.80
2023-02-03T01:37:54.141Z,2.20
2023-02-03T01:40:26.016Z,1.80
2023-02-03T01:42:57.672Z,2.70
2023-02-03T01:45:29.211Z,2.90
2023-02-03T01:48:02.315Z,2.60
2023-02-03T01:50:36.406Z,2.50
2023-02-03T01:53:12.217Z,2.70
2023-02-03T01:55:46.915Z,2.60
2023-02-03T01:58:23.920Z,2.30
2023-02-03T02:00:58.250Z,2.90
2023-02-03T02:03:34.922Z,2.80
2023-02-03T02:06:09.748Z,2.60
2023-02-03T02:11:12.297Z,2.90
2023-02-03T02:13:45.325Z,2.90
2023-02-03T02:16:24.198Z,2.90
2023-02-03T02:19:15.234Z,3.50
2023-02-03T02:22:00.556Z,2.90
2023-02-03T02:25:01.350Z,3.00
2023-02-03T02:27:52.191Z,2.80
2023-02-03T02:30:44.925Z,2.40
2023-02-03T02:33:29.131Z,2.90
2023-02-03T02:36:10.028Z,2.30
2023-02-03T02:38:54.319Z,2.60
2023-02-03T02:41:29.911Z,2.40
2023-02-03T02:44:07.245Z,3.10
2023-02-03T02:46:44.012Z,2.80
2023-02-03T02:49:21.025Z,2.90
2023-02-03T02:51:54.808Z,2.70
2023-02-03T02:54:29.545Z,2.90
2023-02-03T02:59:32.619Z,3.40
2023-02-03T03:02:04.213Z,3.20
2023-02-03T03:04:37.157Z,3.50
2023-02-03T03:07:14.319Z,3.20
2023-02-03T03:09:48.690Z,3.50
2023-02-03T03:12:23.142Z,4.10
2023-02-03T03:15:00.208Z,3.40
2023-02-03T03:17:35.848Z,3.20
2023-02-03T03:20:11.668Z,3.40
2023-02-03T03:22:48.699Z,4.30
2023-02-03T03:25:23.311Z,3.80
2023-02-03T03:28:00.750Z,3.70
2023-02-03T03:30:37.536Z,3.90
2023-02-03T03:33:10.328Z,3.60
2023-02-03T03:35:49.268Z,3.60
2023-02-03T03:38:25.097Z,3.40
2023-02-03T03:41:00.733Z,3.30
2023-02-03T03:43:36.024Z,4.10
2023-02-03T03:46:15.185Z,3.80
2023-02-03T03:48:51.477Z,4.10
2023-02-03T03:51:27.533Z,3.80
2023-02-03T03:54:05.609Z,3.60
2023-02-03T03:56:43.169Z,3.40
2023-02-03T03:59:16.606Z,3.90
2023-02-03T04:01:49.084Z,4.40
2023-02-03T04:04:22.476Z,3.90
2023-02-03T04:06:56.228Z,3.50
2023-02-03T04:09:27.899Z,3.20
2023-02-03T04:12:06.490Z,3.50
2023-02-03T04:14:39.738Z,4.30
2023-02-03T04:17:12.311Z,4.00
2023-02-03T04:19:44.135Z,3.90
2023-02-03T04:22:15.655Z,4.10
2023-02-03T04:24:47.119Z,4.50
2023-02-03T04:27:18.618Z,4.40
2023-02-03T04:29:51.041Z,4.60
2023-02-03T04:32:22.590Z,5.50
2023-02-03T04:34:54.130Z,4.80
2023-02-03T04:37:29.782Z,5.00
2023-02-03T04:40:06.450Z,4.90
2023-02-03T04:42:40.550Z,4.60
2023-02-03T04:45:14.225Z,5.10
2023-02-03T04:47:45.705Z,4.00
2023-02-03T04:50:17.418Z,4.80
2023-02-03T04:52:49.020Z,5.10
2023-02-03T04:55:20.684Z,4.40
2023-02-03T04:57:56.286Z,4.30
2023-02-03T05:00:28.751Z,4.30
2023-02-03T05:03:00.498Z,4.20
2023-02-03T05:05:32.336Z,4.40
2023-02-03T05:08:05.488Z,4.70
2023-02-03T05:10:37.034Z,6.20
2023-02-03T05:13:08.534Z,6.80
2023-02-03T05:15:39.954Z,6.90
2023-02-03T05:18:11.474Z,5.30
2023-02-03T05:20:43.009Z,5.00
2023-02-03T05:23:14.597Z,4.70
2023-02-03T05:25:46.957Z,4.10
2023-02-03T05:28:18.522Z,4.60
2023-02-03T05:30:50.578Z,4.80
2023-02-03T05:33:22.437Z,6.10
2023-02-03T05:35:54.026Z,6.10
2023-02-03T05:38:26.491Z,7.20
2023-02-03T05:41:15.128Z,6.20
2023-02-03T05:43:46.657Z,6.70
2023-02-03T05:46:18.192Z,7.80
2023-02-03T05:48:49.661Z,7.90
2023-02-03T05:51:21.223Z,9.50
2023-02-03T05:53:54.010Z,8.90
2023-02-03T05:56:25.617Z,7.70
2023-02-03T05:58:58.852Z,8.20
2023-02-03T06:01:30.455Z,7.70
2023-02-03T06:04:02.295Z,7.80
2023-02-03T06:06:34.830Z,7.70
2023-02-03T06:09:08.784Z,7.40
2023-02-03T06:11:42.997Z,7.80
2023-02-03T06:14:14.634Z,7.40
2023-02-03T06:16:46.593Z,8.00
2023-02-03T06:19:18.127Z,8.30
2023-02-03T06:21:49.578Z,8.00
2023-02-03T06:24:21.054Z,8.20
2023-02-03T06:26:55.142Z,8.30
2023-02-03T06:29:26.746Z,7.40
2023-02-03T06:31:58.529Z,7.80
2023-02-03T06:34:31.574Z,8.40
2023-02-03T06:37:03.217Z,8.40
2023-02-03T06:39:34.667Z,8.20
2023-02-03T06:42:06.375Z,8.40
2023-02-03T06:44:37.940Z,7.60
2023-02-03T06:47:09.573Z,8.30
2023-02-03T06:49:40.999Z,7.00
2023-02-03T06:52:12.680Z,7.10
2023-02-03T06:54:44.346Z,7.00
2023-02-03T06:57:15.961Z,8.40
2023-02-03T06:59:47.693Z,7.70
2023-02-03T07:02:19.506Z,8.00
2023-02-03T07:04:51.128Z,8.60
2023-02-03T07:07:22.752Z,7.90
2023-02-03T07:09:54.372Z,9.10
2023-02-03T07:12:25.844Z,9.70
2023-02-03T07:14:57.377Z,8.70
2023-02-03T07:17:29.013Z,8.50
2023-02-03T07:20:00.827Z,8.00
2023-02-03T07:22:32.401Z,7.70
2023-02-03T07:25:03.906Z,8.00
2023-02-03T07:27:35.477Z,8.30
2023-02-03T07:30:08.261Z,8.20
2023-02-03T07:32:40.059Z,7.80
2023-02-03T07:35:11.983Z,6.60
2023-02-03T07:37:43.784Z,7.10
2023-02-03T07:40:16.321Z,5.80
2023-02-03T07:42:49.249Z,5.70
2023-02-03T07:45:22.506Z,4.40
2023-02-03T07:47:54.208Z,5.60
2023-02-03T07:50:26.203Z,6.20
2023-02-03T07:52:58.301Z,6.30
2023-02-03T07:55:30.340Z,6.80
2023-02-03T07:58:03.433Z,7.20
2023-02-03T08:00:35.757Z,7.30
2023-02-03T08:03:07.970Z,6.50
2023-02-03T08:05:39.686Z,6.90
2023-02-03T08:08:11.291Z,7.20
2023-02-03T08:10:42.997Z,6.90
2023-02-03T08:13:14.978Z,7.60
2023-02-03T08:15:46.760Z,6.70
2023-02-03T08:18:18.450Z,6.20
2023-02-03T08:20:50.957Z,5.40
2023-02-03T08:23:22.669Z,5.90
2023-02-03T08:25:57.396Z,5.80
2023-02-03T08:30:59.478Z,5.10
2023-02-03T08:33:31.173Z,5.10
2023-02-03T08:36:03.200Z,5.60
2023-02-03T08:38:34.960Z,6.40
2023-02-03T08:41:12.927Z,6.60
2023-02-03T08:43:44.694Z,7.10
2023-02-03T08:46:17.129Z,6.00
2023-02-03T08:48:48.812Z,5.40
2023-02-03T08:51:21.124Z,6.20
2023-02-03T08:53:52.942Z,6.40
2023-02-03T08:56:26.780Z,6.20
2023-02-03T08:58:58.470Z,7.20
2023-02-03T09:01:30.482Z,6.80
2023-02-03T09:04:04.269Z,5.70
2023-02-03T09:06:36.222Z,5.30
2023-02-03T09:09:08.359Z,5.30
2023-02-03T09:11:40.278Z,5.20
2023-02-03T09:14:12.541Z,5.30
2023-02-03T09:16:44.719Z,5.00
2023-02-03T09:19:16.460Z,5.50
2023-02-03T09:21:49.527Z,5.70
2023-02-03T09:24:22.724Z,6.10
2023-02-03T09:26:55.647Z,10.30
2023-02-03T09:29:27.203Z,8.00
2023-02-03T09:31:58.893Z,9.50
2023-02-03T09:34:30.632Z,6.30
2023-02-03T09:37:02.319Z,6.00
2023-02-03T09:39:34.213Z,6.00
2023-02-03T09:42:30.182Z,5.50
2023-02-03T09:45:15.688Z,6.20
2023-02-03T09:47:54.396Z,6.60
2023-02-03T09:50:29.951Z,4.70
2023-02-03T09:53:05.984Z,4.80
2023-02-03T09:55:42.550Z,4.60
2023-02-03T09:58:17.056Z,4.30
2023-02-03T10:00:52.544Z,4.30
2023-02-03T10:03:34.674Z,4.30
2023-02-03T10:06:28.266Z,5.90
2023-02-03T10:09:21.845Z,5.00
2023-02-03T10:12:10.740Z,4.20
2023-02-03T10:14:57.595Z,4.50
2023-02-03T10:17:35.656Z,4.20
2023-02-03T10:20:16.698Z,5.20
2023-02-03T10:22:52.736Z,5.30
2023-02-03T10:25:31.260Z,5.60
2023-02-03T10:28:06.902Z,6.10
2023-02-03T10:30:46.034Z,7.40
2023-02-03T10:33:19.801Z,7.20
2023-02-03T10:35:55.511Z,6.30
2023-02-03T10:38:41.346Z,6.00
2023-02-03T10:41:13.305Z,5.80
2023-02-03T10:43:53.075Z,5.50
2023-02-03T10:46:31.475Z,6.00
2023-02-03T10:49:03.186Z,6.90
2023-02-03T10:51:42.220Z,6.30
2023-02-03T10:54:30.890Z,6.90
2023-02-03T10:57:07.726Z,6.50
2023-02-03T10:59:43.145Z,6.90
2023-02-03T11:02:26.922Z,6.40
2023-02-03T11:05:22.375Z,5.30
2023-02-03T11:07:55.095Z,5.40
2023-02-03T11:10:39.178Z,6.10
2023-02-03T11:13:20.906Z,6.50
2023-02-03T11:16:02.460Z,6.20
2023-02-03T11:18:48.465Z,6.20
2023-02-03T11:21:22.436Z,7.20
2023-02-03T11:24:04.358Z,6.40
2023-02-03T11:26:41.996Z,7.70
2023-02-03T11:29:23.650Z,7.80
2023-02-03T11:31:57.706Z,9.10
2023-02-03T11:34:34.804Z,7.00
2023-02-03T11:37:29.943Z,6.90
2023-02-03T11:40:23.827Z,8.60
2023-02-03T11:43:06.446Z,7.50
2023-02-03T11:45:43.927Z,6.20
2023-02-03T11:48:27.016Z,7.20
2023-02-03T11:51:05.933Z,7.30
2023-02-03T11:54:00.797Z,6.40
2023-02-03T11:56:57.168Z,6.60
2023-02-03T11:59:43.125Z,7.20
2023-02-03T12:02:39.941Z,6.00
2023-02-03T12:05:29.650Z,6.80
2023-02-03T12:08:17.138Z,6.90
2023-02-03T12:10:57.070Z,6.70
2023-02-03T12:13:50.808Z,6.20
2023-02-03T12:16:39.037Z,6.60
2023-02-03T12:19:18.700Z,6.70
2023-02-03T12:21:52.989Z,6.10
2023-02-03T12:24:38.468Z,6.80
2023-02-03T12:27:21.213Z,7.80
2023-02-03T12:29:57.011Z,7.90
2023-02-03T12:32:36.699Z,7.50
2023-02-03T12:35:19.098Z,8.60
2023-02-03T12:37:58.566Z,9.40
2023-02-03T12:40:43.114Z,8.60
2023-02-03T12:43:26.241Z,9.40
2023-02-03T12:46:03.770Z,10.30
2023-02-03T12:48:45.847Z,10.40
2023-02-03T12:51:25.371Z,11.60
2023-02-03T12:54:05.058Z,9.50
2023-02-03T12:56:43.484Z,8.80
2023-02-03T12:59:22.133Z,9.50
2023-02-03T13:01:59.910Z,10.00
2023-02-03T13:04:38.657Z,10.80
2023-02-03T13:07:19.009Z,10.40
2023-02-03T13:09:58.054Z,10.80
2023-02-03T13:12:33.426Z,10.80
2023-02-03T13:15:24.314Z,11.00
2023-02-03T13:18:01.504Z,12.20
2023-02-03T13:20:36.692Z,11.80
2023-02-03T13:23:13.753Z,10.90
2023-02-03T13:26:06.302Z,11.10
2023-02-03T13:29:03.312Z,11.00
2023-02-03T13:31:45.723Z,10.10
2023-02-03T13:34:31.535Z,10.20
2023-02-03T13:37:23.590Z,10.60
2023-02-03T13:40:13.141Z,11.00
2023-02-03T13:42:49.219Z,10.90
2023-02-03T13:45:29.438Z,9.80
2023-02-03T13:48:10.172Z,8.30
2023-02-03T13:50:43.195Z,9.70
2023-02-03T13:53:23.509Z,9.80
2023-02-03T13:56:01.093Z,9.00
2023-02-03T13:58:34.819Z,9.90
2023-02-03T14:01:40.264Z,9.30
2023-02-03T14:04:35.953Z,10.20
2023-02-03T14:07:33.723Z,9.30
2023-02-03T14:10:23.779Z,10.70
2023-02-03T14:13:21.587Z,10.80
2023-02-03T14:16:24.761Z,9.40
2023-02-03T14:18:58.101Z,8.80
2023-02-03T14:21:38.853Z,9.80
2023-02-03T14:24:14.325Z,9.60
2023-02-03T14:26:48.955Z,9.00
2023-02-03T14:29:31.313Z,8.30
2023-02-03T14:32:05.410Z,8.00
2023-02-03T14:34:42.376Z,9.80
2023-02-03T14:37:25.591Z,9.70
2023-02-03T14:40:34.961Z,10.30
2023-02-03T14:43:26.054Z,9.90
2023-02-03T14:46:23.702Z,10.40
2023-02-03T14:49:08.364Z,9.20
2023-02-03T14:51:59.337Z,9.90
2023-02-03T14:54:47.648Z,7.90
2023-02-03T14:57:31.124Z,8.90
2023-02-03T15:00:07.222Z,9.80
2023-02-03T15:02:59.286Z,8.30
2023-02-03T15:05:43.031Z,9.80
2023-02-03T15:08:42.881Z,7.30
2023-02-03T15:11:33.585Z,9.10
2023-02-03T15:14:25.915Z,9.60
2023-02-03T15:17:02.733Z,9.80
2023-02-03T15:19:39.866Z,8.90
2023-02-03T15:22:25.531Z,8.40
2023-02-03T15:25:00.910Z,8.20
2023-02-03T15:27:34.632Z,10.00
2023-02-03T15:30:23.427Z,6.60
2023-02-03T15:33:03.725Z,7.40
2023-02-03T15:35:38.102Z,8.10
2023-02-03T15:38:13.955Z,9.10
2023-02-03T15:40:50.312Z,8.50
2023-02-03T15:43:28.352Z,8.50
2023-02-03T15:46:07.726Z,8.10
2023-02-03T15:48:43.853Z,7.10
2023-02-03T15:51:20.769Z,7.40
2023-02-03T15:53:59.702Z,8.30
2023-02-03T15:56:38.213Z,9.20
2023-02-03T15:59:22.823Z,9.00
2023-02-03T16:01:55.226Z,8.90
2023-02-03T16:04:28.651Z,9.00
2023-02-03T16:07:02.627Z,8.70
2023-02-03T16:09:36.824Z,7.60
2023-02-03T16:12:20.548Z,10.20
2023-02-03T16:14:54.029Z,8.30
2023-02-03T16:17:30.512Z,7.70
2023-02-03T16:20:28.548Z,8.30
2023-02-03T16:23:19.643Z,8.30
2023-02-03T16:26:05.829Z,9.00
2023-02-03T16:28:54.638Z,8.80
2023-02-03T16:31:43.921Z,10.30
2023-02-03T16:34:35.854Z,10.80
2023-02-03T16:37:32.526Z,9.70
2023-02-03T16:40:21.837Z,11.10
2023-02-03T16:43:11.041Z,11.30
2023-02-03T16:46:01.137Z,14.90
2023-02-03T16:48:51.199Z,12.50
2023-02-03T16:51:23.580Z,12.00
2023-02-03T16:53:55.368Z,13.70
2023-02-03T16:56:26.992Z,11.30
2023-02-03T16:58:58.856Z,16.10
2023-02-03T17:01:30.777Z,17.80
2023-02-03T17:04:03.043Z,14.30
2023-02-03T17:06:38.717Z,13.00
2023-02-03T17:09:11.367Z,14.00
2023-02-03T17:11:46.270Z,14.90
2023-02-03T17:14:19.162Z,17.20
2023-02-03T17:16:51.924Z,17.30
2023-02-03T17:19:24.335Z,19.60
2023-02-03T17:21:56.386Z,18.90
2023-02-03T17:24:28.882Z,21.20
2023-02-03T17:27:00.618Z,20.20
2023-02-03T17:29:34.943Z,21.80
2023-02-03T17:32:07.542Z,22.10
2023-02-03T17:34:40.689Z,21.90
2023-02-03T17:37:12.463Z,22.20
2023-02-03T17:54:06.298Z,22.80
2023-02-03T17:56:38.674Z,25.70
2023-02-03T17:59:12.480Z,27.20
2023-02-03T18:01:44.737Z,23.90
2023-02-03T18:04:17.039Z,23.30
2023-02-03T18:06:50.480Z,21.00
2023-02-03T18:09:23.287Z,18.70
2023-02-03T18:11:55.539Z,16.90
2023-02-03T18:14:28.425Z,19.30
2023-02-03T18:17:00.976Z,19.10
2023-02-03T18:19:34.695Z,17.40
2023-02-03T18:22:08.546Z,17.30
2023-02-03T18:24:53.765Z,15.80
2023-02-03T18:29:58.502Z,17.10
2023-02-03T18:32:33.911Z,18.40
2023-02-03T18:35:13.921Z,17.60
2023-02-03T18:37:47.099Z,15.90
2023-02-03T18:40:21.796Z,17.70
2023-02-03T18:45:31.193Z,20.10
2023-02-03T18:48:07.167Z,20.50
2023-02-03T18:50:44.353Z,17.80
2023-02-03T18:53:19.107Z,18.10
2023-02-03T18:58:25.838Z,15.80
2023-02-03T19:00:59.941Z,15.60
2023-02-03T19:03:46.497Z,16.50
2023-02-03T19:06:20.500Z,17.20
2023-02-03T19:08:56.446Z,16.90
2023-02-03T19:11:31.038Z,17.10
2023-02-03T19:16:36.527Z,17.10
2023-02-03T19:19:13.070Z,15.30
2023-02-03T19:21:46.643Z,16.50
2023-02-03T19:24:22.639Z,16.50
2023-02-03T19:26:56.084Z,16.50
2023-02-03T19:29:29.688Z,17.60
2023-02-03T19:32:10.771Z,18.70
2023-02-03T19:34:45.913Z,16.60
2023-02-03T19:37:22.355Z,16.70
2023-02-03T19:39:57.147Z,17.40
2023-02-03T19:45:06.818Z,16.20
2023-02-03T19:47:41.683Z,16.80
2023-02-03T19:52:48.772Z,14.30
2023-02-03T19:55:27.907Z,15.40
2023-02-03T19:58:03.092Z,15.10
2023-02-03T20:00:36.497Z,18.00
2023-02-03T20:03:23.762Z,19.90
2023-02-03T20:06:01.195Z,19.10
2023-02-03T20:08:35.219Z,19.70
2023-02-03T20:11:12.412Z,19.30
2023-02-03T20:13:46.614Z,18.20
2023-02-03T20:16:25.320Z,18.50
2023-02-03T20:19:04.471Z,18.10
2023-02-03T20:21:39.243Z,17.40
2023-02-03T20:26:47.624Z,17.10
2023-02-03T20:29:22.448Z,19.20
2023-02-03T20:34:32.809Z,18.30
2023-02-03T20:37:11.889Z,17.60
2023-02-03T20:39:46.674Z,20.50
2023-02-03T20:44:54.094Z,20.40
2023-02-03T20:47:30.947Z,23.00
2023-02-03T20:50:05.209Z,21.50
2023-02-03T20:52:39.433Z,21.60
2023-02-03T20:55:19.842Z,23.30
2023-02-03T20:57:56.109Z,24.90
2023-02-03T21:00:34.350Z,26.90
2023-02-03T21:03:25.530Z,27.10
2023-02-03T21:05:58.988Z,26.60
2023-02-03T21:08:32.925Z,28.00
2023-02-03T21:11:12.294Z,32.70
2023-02-03T21:13:46.275Z,24.80
2023-02-03T21:16:25.736Z,22.20
2023-02-03T21:19:03.264Z,24.20
2023-02-03T21:21:41.049Z,23.50
2023-02-03T21:24:32.891Z,23.30
2023-02-03T21:27:22.668Z,28.40
2023-02-03T21:29:57.465Z,24.80
2023-02-03T21:35:24.282Z,25.50
2023-02-03T21:38:03.502Z,21.10
2023-02-03T21:40:40.081Z,19.40
2023-02-03T21:43:21.010Z,23.90
2023-02-03T21:45:56.275Z,24.40
2023-02-03T21:48:33.243Z,22.00
2023-02-03T21:51:15.726Z,25.00
2023-02-03T21:53:54.415Z,26.20
2023-02-03T21:56:30.035Z,21.40
2023-02-03T21:59:05.611Z,20.30
2023-02-03T22:01:41.469Z,21.00
2023-02-03T22:04:13.967Z,21.10
2023-02-03T22:06:49.788Z,23.20
2023-02-03T22:09:23.096Z,22.00
2023-02-03T22:11:55.598Z,22.90
2023-02-03T22:14:27.275Z,22.10
2023-02-03T22:16:59.047Z,19.00
2023-02-03T22:19:32.493Z,21.20
2023-02-03T22:22:04.253Z,22.40
2023-02-03T22:24:36.167Z,19.80
2023-02-03T22:27:07.925Z,18.70
2023-02-03T22:29:40.672Z,25.40
2023-02-03T22:32:13.365Z,19.30
2023-02-03T22:34:44.987Z,19.90
2023-02-03T22:37:16.574Z,19.70
2023-02-03T22:39:48.513Z,19.40
2023-02-03T22:42:21.767Z,18.70
2023-02-03T22:44:53.502Z,19.60
2023-02-03T22:47:27.010Z,18.70
2023-02-03T22:49:59.827Z,17.60
2023-02-03T22:52:31.487Z,18.10
2023-02-03T22:55:03.142Z,17.20
2023-02-03T22:57:35.297Z,17.80
2023-02-03T23:00:12.076Z,18.00
2023-02-03T23:02:43.778Z,17.60
2023-02-03T23:05:15.805Z,15.80
2023-02-03T23:07:47.928Z,17.20
2023-02-03T23:10:21.639Z,18.90
2023-02-03T23:12:53.592Z,18.10
2023-02-03T23:15:25.284Z,19.20
2023-02-03T23:17:57.034Z,18.90
2023-02-03T23:20:28.709Z,21.00
2023-02-03T23:23:00.390Z,20.60
2023-02-03T23:25:32.067Z,18.60
2023-02-03T23:28:03.806Z,20.00
2023-02-03T23:30:35.570Z,20.40
2023-02-03T23:33:07.224Z,20.30
2023-02-03T23:35:47.764Z,20.00
2023-02-03T23:38:20.434Z,19.20
2023-02-03T23:40:51.972Z,20.30
2023-02-03T23:43:23.497Z,18.40
2023-02-03T23:45:54.999Z,17.10
2023-02-03T23:48:26.483Z,19.60
2023-02-03T23:50:58.031Z,17.10
2023-02-03T23:53:29.677Z,17.90
2023-02-03T23:56:01.230Z,17.00
2023-02-03T23:58:32.824Z,14.70
